createdAt,value
2019-05-20T00:00:56.632Z,22.82
2019-05-20T00:03:23.715Z,21.70
2019-05-20T00:05:51.438Z,17.92
2019-05-20T00:08:18.864Z,20.60
2019-05-20T00:19:22.135Z,24.05
2019-05-20T00:21:50.451Z,22.82
2019-05-20T00:24:17.416Z,22.40
2019-05-20T00:26:44.419Z,22.50
2019-05-20T00:29:11.551Z,22.35
2019-05-20T00:31:38.632Z,21.30
2019-05-20T00:34:05.851Z,24.37
2019-05-20T00:36:34.193Z,21.10
2019-05-20T00:39:20.296Z,26.00
2019-05-20T00:41:49.081Z,29.72
2019-05-20T00:44:20.188Z,25.37
2019-05-20T00:46:47.139Z,25.02
2019-05-20T00:49:14.239Z,25.72
2019-05-20T00:51:41.831Z,24.10
2019-05-20T00:54:09.472Z,21.48
2019-05-20T00:56:37.241Z,25.77
2019-05-20T00:59:05.041Z,27.22
2019-05-20T01:01:32.253Z,26.23
2019-05-20T01:03:59.942Z,28.87
2019-05-20T01:06:27.307Z,22.73
2019-05-20T01:08:55.035Z,22.25
2019-05-20T01:11:24.962Z,21.85
2019-05-20T01:13:52.254Z,19.65
2019-05-20T01:16:19.534Z,20.43
2019-05-20T01:18:47.009Z,22.95
2019-05-20T01:21:14.087Z,19.90
2019-05-20T01:23:43.224Z,19.73
2019-05-20T01:26:10.455Z,19.00
2019-05-20T01:28:38.061Z,17.15
2019-05-20T01:31:05.155Z,20.45
2019-05-20T01:33:32.463Z,18.10
2019-05-20T01:35:59.751Z,20.17
2019-05-20T01:38:27.163Z,17.55
2019-05-20T01:40:54.296Z,20.25
2019-05-20T01:43:21.723Z,22.80
2019-05-20T01:45:49.210Z,22.05
2019-05-20T01:48:16.485Z,22.58
2019-05-20T01:50:43.999Z,21.77
2019-05-20T01:53:11.815Z,18.73
2019-05-20T01:55:39.476Z,20.65
2019-05-20T01:58:07.810Z,18.75
2019-05-20T02:00:35.003Z,19.20
2019-05-20T02:03:02.741Z,21.75
2019-05-20T02:05:30.194Z,18.40
2019-05-20T02:07:58.916Z,22.65
2019-05-20T02:10:26.551Z,24.60
2019-05-20T02:12:53.803Z,19.65
2019-05-20T02:24:19.103Z,18.05
2019-05-20T02:26:46.456Z,20.77
2019-05-20T02:29:13.466Z,23.40
2019-05-20T02:31:40.519Z,22.90
2019-05-20T02:34:08.584Z,19.90
2019-05-20T02:36:35.733Z,20.77
2019-05-20T02:39:05.652Z,15.45
2019-05-20T02:41:33.027Z,15.65
2019-05-20T02:44:00.067Z,12.88
2019-05-20T02:46:27.133Z,8.63
2019-05-20T02:48:54.223Z,8.75
2019-05-20T02:51:24.260Z,8.20
2019-05-20T02:53:51.492Z,9.00
2019-05-20T02:56:18.612Z,8.33
2019-05-20T02:58:46.355Z,8.18
2019-05-20T03:01:14.430Z,14.90
2019-05-20T03:03:41.957Z,14.78
2019-05-20T03:06:09.920Z,18.30
2019-05-20T03:08:36.970Z,15.55
2019-05-20T03:11:04.123Z,19.65
2019-05-20T03:13:31.222Z,17.23
2019-05-20T03:15:58.761Z,18.62
2019-05-20T03:18:26.839Z,19.55
2019-05-20T03:20:54.601Z,21.15
2019-05-20T03:23:21.921Z,16.40
2019-05-20T03:25:49.360Z,18.67
2019-05-20T03:28:16.661Z,15.75
2019-05-20T03:30:43.925Z,20.25
2019-05-20T03:33:11.141Z,15.38
2019-05-20T03:35:38.628Z,14.05
2019-05-20T03:38:06.155Z,17.75
2019-05-20T03:40:33.253Z,15.32
2019-05-20T03:43:00.432Z,18.50
2019-05-20T03:45:27.622Z,14.78
2019-05-20T03:47:55.171Z,16.40
2019-05-20T03:50:22.321Z,12.30
2019-05-20T03:52:49.639Z,16.55
2019-05-20T03:55:17.150Z,15.90
2019-05-20T03:57:44.343Z,16.23
2019-05-20T04:00:12.110Z,19.67
2019-05-20T04:02:39.247Z,21.12
2019-05-20T04:05:06.690Z,17.73
2019-05-20T04:07:33.619Z,17.37
2019-05-20T04:10:00.827Z,17.48
2019-05-20T04:12:28.937Z,18.00
2019-05-20T04:14:56.049Z,20.25
2019-05-20T04:17:23.091Z,16.12
2019-05-20T04:19:49.982Z,17.00
2019-05-20T04:22:17.013Z,18.65
2019-05-20T04:24:44.004Z,19.45
2019-05-20T04:27:11.016Z,20.88
2019-05-20T04:29:38.511Z,19.45
2019-05-20T04:32:05.429Z,20.27
2019-05-20T04:34:32.873Z,18.70
2019-05-20T04:36:59.911Z,19.02
2019-05-20T04:39:27.048Z,13.40
2019-05-20T04:41:54.199Z,17.35
2019-05-20T04:44:22.161Z,14.85
2019-05-20T04:46:49.436Z,17.73
2019-05-20T04:49:16.683Z,16.75
2019-05-20T04:51:43.845Z,18.95
2019-05-20T04:54:11.750Z,21.50
2019-05-20T04:56:38.828Z,18.00
2019-05-20T04:59:06.221Z,18.12
2019-05-20T05:01:33.055Z,19.17
2019-05-20T05:04:00.154Z,15.72
2019-05-20T05:06:28.660Z,13.48
2019-05-20T05:08:56.113Z,10.72
2019-05-20T05:11:24.010Z,11.35
2019-05-20T05:13:52.145Z,10.65
2019-05-20T05:16:19.669Z,7.58
2019-05-20T05:18:46.991Z,12.15
2019-05-20T05:21:14.088Z,6.37
2019-05-20T05:23:41.602Z,9.53
2019-05-20T05:26:09.782Z,9.43
2019-05-20T05:28:36.724Z,13.50
2019-05-20T05:31:04.217Z,15.40
2019-05-20T05:33:31.596Z,17.67
2019-05-20T05:35:58.799Z,16.00
2019-05-20T05:38:26.173Z,17.55
2019-05-20T05:40:53.267Z,21.50
2019-05-20T05:43:20.446Z,17.73
2019-05-20T05:45:47.635Z,18.90
2019-05-20T05:48:14.753Z,15.53
2019-05-20T05:50:41.965Z,18.98
2019-05-20T05:53:09.024Z,15.32
2019-05-20T05:55:36.215Z,18.62
2019-05-20T05:58:03.660Z,16.95
2019-05-20T06:00:30.961Z,13.30
2019-05-20T06:02:58.010Z,12.10
2019-05-20T06:05:25.326Z,13.70
2019-05-20T06:07:52.461Z,9.88
2019-05-20T06:10:21.103Z,10.05
2019-05-20T06:12:50.837Z,9.10
2019-05-20T06:15:18.931Z,8.28
2019-05-20T06:17:46.141Z,10.08
2019-05-20T06:20:15.383Z,7.42
2019-05-20T06:22:42.509Z,7.05
2019-05-20T06:25:13.527Z,7.30
2019-05-20T06:27:40.605Z,10.28
2019-05-20T06:30:10.486Z,8.48
2019-05-20T06:32:37.615Z,7.95
2019-05-20T06:35:07.129Z,7.50
2019-05-20T06:37:41.906Z,11.05
2019-05-20T06:40:09.416Z,9.15
2019-05-20T06:42:37.379Z,7.78
2019-05-20T06:45:07.448Z,10.58
2019-05-20T06:47:34.907Z,10.75
2019-05-20T06:50:05.180Z,11.00
2019-05-20T06:52:35.868Z,9.28
2019-05-20T06:55:02.048Z,10.08
2019-05-20T06:57:29.443Z,6.80
2019-05-20T06:59:56.448Z,3.45
2019-05-20T07:02:23.453Z,1.95
2019-05-20T07:04:50.643Z,2.95
2019-05-20T07:07:20.946Z,1.85
2019-05-20T07:09:46.728Z,1.42
2019-05-20T07:12:14.030Z,0.68
2019-05-20T07:14:41.205Z,0.88
2019-05-20T07:17:08.198Z,0.98
2019-05-20T07:19:35.487Z,0.62
2019-05-20T07:22:02.784Z,0.30
2019-05-20T07:24:30.146Z,0.40
2019-05-20T07:26:57.148Z,0.93
2019-05-20T07:29:24.179Z,0.28
2019-05-20T07:31:51.441Z,0.33
2019-05-20T07:34:21.060Z,0.20
2019-05-20T07:37:01.958Z,1.15
2019-05-20T07:39:19.292Z,0.50
2019-05-20T07:41:46.531Z,2.37
2019-05-20T07:44:15.884Z,0.30
2019-05-20T07:46:43.194Z,0.25
2019-05-20T07:49:10.691Z,0.30
2019-05-20T07:51:39.475Z,0.20
2019-05-20T07:54:07.541Z,0.40
2019-05-20T07:56:40.239Z,2.85
2019-05-20T07:59:11.437Z,1.07
2019-05-20T08:01:38.946Z,0.65
2019-05-20T08:04:06.301Z,0.90
2019-05-20T08:06:34.345Z,0.95
2019-05-20T08:09:01.675Z,0.90
2019-05-20T08:11:29.296Z,0.62
2019-05-20T08:13:57.057Z,0.75
2019-05-20T08:16:24.179Z,1.12
2019-05-20T08:18:51.615Z,0.40
2019-05-20T08:21:18.796Z,1.07
2019-05-20T08:23:49.584Z,1.40
2019-05-20T08:26:15.178Z,0.88
2019-05-20T08:28:42.500Z,0.82
2019-05-20T08:31:09.985Z,1.17
2019-05-20T08:33:37.293Z,4.30
2019-05-20T08:36:04.955Z,0.95
2019-05-20T08:38:32.042Z,0.42
2019-05-20T08:40:59.146Z,0.85
2019-05-20T08:43:26.515Z,0.85
2019-05-20T08:45:53.692Z,2.75
2019-05-20T08:48:20.731Z,1.42
2019-05-20T08:50:47.621Z,3.05
2019-05-20T08:53:14.982Z,0.82
2019-05-20T08:55:41.903Z,0.88
2019-05-20T08:58:09.251Z,2.27
2019-05-20T09:00:36.153Z,0.93
2019-05-20T09:03:03.244Z,3.90
2019-05-20T09:05:30.394Z,1.92
2019-05-20T09:08:02.831Z,1.72
2019-05-20T09:10:26.869Z,1.20
2019-05-20T09:12:53.916Z,1.60
2019-05-20T09:15:21.200Z,2.35
2019-05-20T09:17:48.366Z,2.05
2019-05-20T09:20:15.773Z,2.27
2019-05-20T09:22:42.995Z,1.85
2019-05-20T09:25:10.976Z,1.82
2019-05-20T09:27:38.663Z,1.75
2019-05-20T09:30:07.156Z,1.62
2019-05-20T09:32:34.596Z,1.72
2019-05-20T09:35:06.726Z,3.10
2019-05-20T09:37:33.992Z,1.47
2019-05-20T09:40:01.832Z,1.70
2019-05-20T09:42:28.838Z,1.40
2019-05-20T09:44:56.304Z,1.45
2019-05-20T09:47:23.493Z,1.47
2019-05-20T09:49:50.594Z,3.52
2019-05-20T09:52:17.887Z,3.35
2019-05-20T09:54:45.747Z,3.30
2019-05-20T09:57:13.203Z,2.95
2019-05-20T09:59:43.228Z,4.45
2019-05-20T10:02:09.506Z,2.00
2019-05-20T10:04:36.486Z,2.17
2019-05-20T10:07:04.014Z,2.72
2019-05-20T10:09:31.144Z,1.80
2019-05-20T10:11:58.412Z,2.45
2019-05-20T10:14:25.634Z,1.67
2019-05-20T10:16:52.647Z,2.10
2019-05-20T10:19:19.659Z,1.95
2019-05-20T10:21:47.128Z,2.12
2019-05-20T10:24:14.204Z,1.80
2019-05-20T10:26:41.600Z,1.55
2019-05-20T10:29:08.635Z,1.65
2019-05-20T10:31:35.631Z,2.75
2019-05-20T10:34:03.491Z,2.05
2019-05-20T10:36:30.644Z,2.83
2019-05-20T10:38:59.490Z,3.45
2019-05-20T10:41:29.532Z,2.65
2019-05-20T10:43:56.143Z,3.02
2019-05-20T10:46:23.605Z,2.27
2019-05-20T10:48:51.396Z,3.70
2019-05-20T10:51:18.839Z,2.37
2019-05-20T10:53:46.109Z,1.85
2019-05-20T10:56:13.618Z,5.60
2019-05-20T10:58:41.146Z,1.95
2019-05-20T11:01:08.687Z,2.08
2019-05-20T11:03:35.787Z,1.67
2019-05-20T11:06:03.038Z,2.22
2019-05-20T11:08:30.445Z,2.92
2019-05-20T11:10:57.588Z,2.55
2019-05-20T11:13:25.144Z,3.77
2019-05-20T11:15:52.220Z,1.90
2019-05-20T11:18:19.546Z,2.60
2019-05-20T11:20:46.912Z,2.67
2019-05-20T11:23:13.998Z,2.25
2019-05-20T11:25:41.056Z,1.90
2019-05-20T11:28:11.829Z,2.47
2019-05-20T11:30:37.425Z,3.55
2019-05-20T11:33:04.807Z,3.83
2019-05-20T11:35:32.007Z,3.12
2019-05-20T11:37:59.345Z,3.92
2019-05-20T11:40:26.737Z,3.35
2019-05-20T11:42:53.967Z,3.22
2019-05-20T11:45:21.368Z,3.77
2019-05-20T11:47:48.486Z,4.15
2019-05-20T11:50:16.729Z,2.75
2019-05-20T11:52:43.944Z,2.90
2019-05-20T11:55:11.453Z,3.00
2019-05-20T11:57:38.658Z,2.52
2019-05-20T12:00:10.797Z,2.52
2019-05-20T12:02:37.955Z,4.05
2019-05-20T12:05:07.706Z,2.60
2019-05-20T12:07:34.919Z,2.85
2019-05-20T12:10:06.074Z,3.17
2019-05-20T12:12:33.541Z,2.12
2019-05-20T12:15:02.792Z,2.62
2019-05-20T12:17:30.860Z,3.75
2019-05-20T12:19:58.457Z,4.03
2019-05-20T12:22:25.578Z,1.92
2019-05-20T12:24:53.283Z,2.47
2019-05-20T12:27:20.422Z,2.75
2019-05-20T12:29:47.687Z,3.98
2019-05-20T12:32:15.034Z,3.02
2019-05-20T12:34:42.090Z,5.58
2019-05-20T12:37:09.219Z,2.55
2019-05-20T12:39:36.423Z,2.58
2019-05-20T12:42:03.954Z,3.72
2019-05-20T12:44:31.101Z,3.55
2019-05-20T12:46:58.409Z,4.03
2019-05-20T12:49:25.689Z,6.03
2019-05-20T12:51:52.934Z,3.77
2019-05-20T12:54:20.204Z,3.15
2019-05-20T12:56:47.235Z,3.47
2019-05-20T12:59:14.339Z,4.65
2019-05-20T13:01:41.584Z,3.30
2019-05-20T13:04:08.867Z,3.00
2019-05-20T13:06:36.216Z,3.75
2019-05-20T13:09:05.872Z,3.40
2019-05-20T13:11:32.987Z,3.47
2019-05-20T13:14:00.105Z,6.08
2019-05-20T13:16:27.002Z,3.25
2019-05-20T13:18:56.321Z,3.58
2019-05-20T13:21:23.072Z,3.30
2019-05-20T13:23:50.307Z,3.75
2019-05-20T13:26:17.271Z,2.92
2019-05-20T13:28:44.503Z,3.35
2019-05-20T13:31:11.554Z,6.78
2019-05-20T13:33:38.660Z,3.62
2019-05-20T13:36:05.705Z,6.55
2019-05-20T13:38:32.742Z,5.83
2019-05-20T13:40:59.767Z,5.12
2019-05-20T13:43:27.153Z,4.42
2019-05-20T13:45:54.155Z,6.00
2019-05-20T13:48:21.206Z,8.05
2019-05-20T13:50:48.641Z,7.22
2019-05-20T13:53:15.875Z,5.05
2019-05-20T13:55:43.405Z,4.17
2019-05-20T13:58:10.404Z,4.15
2019-05-20T14:00:37.568Z,3.25
2019-05-20T14:03:04.947Z,9.08
2019-05-20T14:05:32.189Z,4.15
2019-05-20T14:07:59.804Z,24.20
2019-05-20T14:10:27.155Z,8.08
2019-05-20T14:12:54.453Z,5.50
2019-05-20T14:15:21.682Z,3.08
2019-05-20T14:17:49.021Z,5.03
2019-05-20T14:20:16.737Z,5.65
2019-05-20T14:22:43.723Z,2.85
2019-05-20T14:25:13.134Z,2.30
2019-05-20T14:27:40.591Z,2.47
2019-05-20T14:30:08.609Z,4.05
2019-05-20T14:32:35.750Z,4.53
2019-05-20T14:35:04.718Z,2.72
2019-05-20T14:37:31.835Z,2.10
2019-05-20T14:39:59.031Z,4.60
2019-05-20T14:42:26.365Z,3.45
2019-05-20T14:44:53.476Z,5.30
2019-05-20T14:47:20.871Z,7.08
2019-05-20T14:49:47.822Z,2.58
2019-05-20T14:52:14.866Z,3.30
2019-05-20T14:54:41.912Z,4.50
2019-05-20T14:57:09.100Z,4.20
2019-05-20T14:59:36.275Z,4.17
2019-05-20T15:02:03.405Z,4.15
2019-05-20T15:04:30.645Z,3.27
2019-05-20T15:06:58.064Z,4.50
2019-05-20T15:09:25.081Z,4.28
2019-05-20T15:11:52.441Z,3.70
2019-05-20T15:14:19.601Z,4.35
2019-05-20T15:16:46.963Z,4.95
2019-05-20T15:19:13.849Z,4.45
2019-05-20T15:21:40.804Z,5.35
2019-05-20T15:24:07.875Z,3.77
2019-05-20T15:26:35.260Z,5.75
2019-05-20T15:29:04.014Z,4.47
2019-05-20T15:31:31.611Z,4.72
2019-05-20T15:33:58.625Z,2.72
2019-05-20T15:36:25.759Z,2.10
2019-05-20T15:38:53.252Z,3.25
2019-05-20T15:41:20.965Z,2.05
2019-05-20T15:43:48.005Z,2.60
2019-05-20T15:46:15.328Z,3.00
2019-05-20T15:48:42.427Z,2.80
2019-05-20T15:51:09.822Z,4.15
2019-05-20T15:53:36.978Z,3.30
2019-05-20T15:56:04.125Z,2.70
2019-05-20T15:58:30.955Z,4.15
2019-05-20T16:00:58.057Z,2.90
2019-05-20T16:03:25.271Z,2.50
2019-05-20T16:05:52.746Z,2.15
2019-05-20T16:08:20.181Z,5.42
2019-05-20T16:10:47.152Z,2.47
2019-05-20T16:13:14.228Z,2.65
2019-05-20T16:15:41.661Z,6.95
2019-05-20T16:18:08.789Z,2.52
2019-05-20T16:20:36.031Z,2.55
2019-05-20T16:23:03.501Z,3.12
2019-05-20T16:25:30.517Z,4.80
2019-05-20T16:27:57.593Z,3.92
2019-05-20T16:30:24.800Z,3.02
2019-05-20T16:32:51.974Z,4.55
2019-05-20T16:35:19.139Z,3.77
2019-05-20T16:37:46.340Z,4.50
2019-05-20T16:40:14.468Z,3.98
2019-05-20T16:42:41.627Z,4.12
2019-05-20T16:45:11.776Z,4.55
2019-05-20T16:47:39.261Z,5.15
2019-05-20T16:50:08.306Z,5.33
2019-05-20T16:52:36.159Z,4.30
2019-05-20T16:55:04.667Z,4.65
2019-05-20T16:57:32.118Z,4.47
2019-05-20T16:59:59.205Z,3.47
2019-05-20T17:02:26.205Z,6.45
2019-05-20T17:04:53.463Z,4.30
2019-05-20T17:07:20.490Z,3.30
2019-05-20T17:09:47.561Z,2.95
2019-05-20T17:12:14.545Z,4.30
2019-05-20T17:14:41.936Z,4.55
2019-05-20T17:17:08.931Z,6.22
2019-05-20T17:19:36.246Z,4.83
2019-05-20T17:22:04.667Z,5.55
2019-05-20T17:24:31.681Z,6.15
2019-05-20T17:27:00.072Z,3.40
2019-05-20T17:29:27.568Z,4.03
2019-05-20T17:31:54.957Z,2.08
2019-05-20T17:34:22.343Z,2.00
2019-05-20T17:36:49.412Z,2.33
2019-05-20T17:39:16.947Z,1.30
2019-05-20T17:41:44.086Z,1.10
2019-05-20T17:44:11.477Z,4.00
2019-05-20T17:46:38.664Z,2.65
2019-05-20T17:49:06.078Z,2.60
2019-05-20T17:51:33.177Z,5.12
2019-05-20T17:54:00.523Z,5.70
2019-05-20T17:56:27.516Z,5.03
2019-05-20T17:58:54.441Z,4.37
2019-05-20T18:01:21.499Z,5.28
2019-05-20T18:03:48.560Z,5.75
2019-05-20T18:06:15.992Z,8.23
2019-05-20T18:08:45.166Z,7.80
2019-05-20T18:11:12.519Z,6.72
2019-05-20T18:13:39.447Z,5.50
2019-05-20T18:16:06.555Z,4.80
2019-05-20T18:18:33.842Z,3.72
2019-05-20T18:21:01.012Z,2.83
2019-05-20T18:23:28.182Z,2.80
2019-05-20T18:25:55.411Z,3.70
2019-05-20T18:28:22.834Z,7.65
2019-05-20T18:30:50.242Z,5.05
2019-05-20T18:33:17.597Z,6.97
2019-05-20T18:35:44.847Z,4.15
2019-05-20T18:38:11.959Z,3.50
2019-05-20T18:40:39.141Z,4.25
2019-05-20T18:43:06.348Z,2.98
2019-05-20T18:45:33.387Z,6.00
2019-05-20T18:48:00.389Z,3.55
2019-05-20T18:50:27.774Z,4.17
2019-05-20T18:52:54.784Z,6.37
2019-05-20T18:55:21.744Z,7.92
2019-05-20T18:57:48.849Z,10.98
2019-05-20T19:00:16.425Z,12.28
2019-05-20T19:02:43.823Z,26.40
2019-05-20T19:05:11.461Z,21.97
2019-05-20T19:07:38.532Z,11.20
2019-05-20T19:10:06.234Z,9.30
2019-05-20T19:12:33.539Z,10.80
2019-05-20T19:15:00.705Z,14.73
2019-05-20T19:17:28.459Z,13.58
2019-05-20T19:19:55.730Z,18.17
2019-05-20T19:22:22.873Z,17.55
2019-05-20T19:24:50.615Z,17.55
2019-05-20T19:27:17.820Z,20.80
2019-05-20T19:29:44.870Z,19.70
2019-05-20T19:32:14.315Z,27.35
2019-05-20T19:34:41.660Z,26.02
2019-05-20T19:37:08.721Z,29.85
2019-05-20T19:39:35.618Z,31.35
2019-05-20T19:42:03.058Z,27.62
2019-05-20T19:44:30.671Z,23.77
2019-05-20T19:46:57.623Z,21.37
2019-05-20T19:49:24.725Z,25.65
2019-05-20T19:51:51.779Z,25.45
2019-05-20T19:54:19.025Z,20.82
2019-05-20T19:56:45.957Z,25.02
2019-05-20T19:59:13.416Z,26.00
2019-05-20T20:01:40.306Z,32.00
2019-05-20T20:04:07.969Z,29.12
2019-05-20T20:06:35.160Z,32.03
2019-05-20T20:09:04.009Z,29.77
2019-05-20T20:11:31.003Z,33.15
2019-05-20T20:13:58.156Z,29.27
2019-05-20T20:16:25.619Z,33.35
2019-05-20T20:18:52.744Z,26.12
2019-05-20T20:21:20.070Z,25.90
2019-05-20T20:23:46.975Z,24.27
2019-05-20T20:26:13.897Z,20.55
2019-05-20T20:28:41.040Z,14.38
2019-05-20T20:31:10.888Z,19.37
2019-05-20T20:33:37.224Z,17.90
2019-05-20T20:36:04.657Z,17.02
2019-05-20T20:38:31.969Z,16.07
2019-05-20T20:40:58.986Z,16.60
2019-05-20T20:43:26.232Z,15.65
2019-05-20T20:45:53.285Z,17.07
2019-05-20T20:48:20.554Z,16.67
2019-05-20T20:50:47.469Z,17.62
2019-05-20T20:53:14.589Z,19.48
2019-05-20T20:55:41.809Z,19.10
2019-05-20T20:58:08.939Z,23.38
2019-05-20T21:00:35.961Z,21.45
2019-05-20T21:03:03.298Z,17.00
2019-05-20T21:05:30.511Z,21.30
2019-05-20T21:07:57.457Z,20.65
2019-05-20T21:10:24.721Z,21.80
2019-05-20T21:12:52.151Z,20.97
2019-05-20T21:15:19.455Z,24.25
2019-05-20T21:17:46.451Z,25.40
2019-05-20T21:20:13.656Z,28.57
2019-05-20T21:22:40.708Z,26.27
2019-05-20T21:25:08.047Z,24.98
2019-05-20T21:27:35.087Z,24.07
2019-05-20T21:30:07.127Z,19.62
2019-05-20T21:32:33.939Z,18.77
2019-05-20T21:35:00.880Z,18.90
2019-05-20T21:37:28.203Z,18.73
2019-05-20T21:39:55.247Z,15.18
2019-05-20T21:42:22.251Z,13.85
2019-05-20T21:44:49.309Z,14.58
2019-05-20T21:47:16.586Z,10.82
2019-05-20T21:49:43.402Z,12.20
2019-05-20T21:52:10.313Z,11.48
2019-05-20T21:54:37.799Z,12.85
2019-05-20T21:57:04.897Z,15.20
2019-05-20T21:59:31.765Z,16.90
2019-05-20T22:01:58.661Z,16.23
2019-05-20T22:04:27.077Z,16.87
2019-05-20T22:06:54.777Z,18.52
2019-05-20T22:09:22.323Z,19.48
2019-05-20T22:11:49.890Z,22.27
2019-05-20T22:14:17.200Z,21.95
2019-05-20T22:16:44.623Z,18.87
2019-05-20T22:19:15.286Z,19.87
2019-05-20T22:21:47.379Z,18.90
2019-05-20T22:24:19.715Z,15.03
2019-05-20T22:26:47.646Z,18.70
2019-05-20T22:29:15.148Z,19.60
2019-05-20T22:31:42.578Z,23.40
2019-05-20T22:34:10.175Z,23.10
2019-05-20T22:36:37.620Z,19.90
2019-05-20T22:39:06.945Z,19.12
2019-05-20T22:41:34.432Z,19.60
2019-05-20T22:44:02.088Z,18.35
2019-05-20T22:46:29.463Z,21.27
2019-05-20T22:48:56.987Z,22.10
2019-05-20T22:51:24.559Z,18.45
2019-05-20T22:53:52.304Z,20.32
2019-05-20T22:56:19.702Z,19.67
2019-05-20T22:58:47.119Z,18.62
2019-05-20T23:01:15.220Z,18.40
2019-05-20T23:03:55.665Z,18.15
2019-05-20T23:06:14.007Z,18.85
2019-05-20T23:08:41.549Z,23.95
2019-05-20T23:11:09.110Z,21.10
2019-05-20T23:13:36.596Z,21.07
2019-05-20T23:16:04.106Z,18.30
2019-05-20T23:18:31.647Z,16.10
2019-05-20T23:20:59.273Z,18.00
2019-05-20T23:23:26.660Z,19.35
2019-05-20T23:25:54.243Z,15.25
2019-05-20T23:28:21.509Z,17.40
2019-05-20T23:30:48.915Z,13.55
2019-05-20T23:33:16.440Z,15.40
2019-05-20T23:35:43.827Z,18.10
2019-05-20T23:38:11.579Z,16.77
2019-05-20T23:40:38.986Z,16.07
2019-05-20T23:43:06.606Z,16.30
2019-05-20T23:45:34.248Z,14.68
2019-05-20T23:48:01.844Z,15.50
2019-05-20T23:50:29.802Z,14.60
2019-05-20T23:52:57.399Z,17.98
2019-05-20T23:55:24.898Z,16.93
2019-05-20T23:57:52.424Z,14.35
